Flight Track Log - Related Links

Times and Time Zones

All times are in EDT time to prevent confusion due to time zone crossing. See the CPZ5843 flight status page for this flight to view local times or setup timezone preferences in your user account.

Time Position Orientation Groundspeed Altitude Reporting Facility
EDT Latitude Longitude Course Direction KTS MPH feet Rate Location/Type
Sun 04:10:42 PM 37.6450 -122.3672 132° Southeast 147 169 1,400  Level Oakland Center
Sun 04:11:43 PM 37.6986 -122.3647 North 205 236 3,200 2,578 Climbing Oakland Center
Sun 04:12:57 PM 37.7167 -122.4500 285° West 277 319 7,200 3,358 Climbing Northern Cal TRACON
Sun 04:13:00 PM 37.3435 -122.0595 136° Southeast  Level Estimated
Sun 04:13:57 PM 37.6333 -122.4833 198° South 274 315 10,700  Level Northern Cal TRACON
Sun 04:14:00 PM 37.2745 -121.9809 130° Southeast  Level Estimated
Sun 04:14:48 PM 37.5700 -122.4678 169° South 308 354 11,900  Level Oakland Center
Sun 04:15:00 PM 37.2054 -121.9025 132° Southeast  Level Estimated
Sun 04:15:50 PM 37.5008 -122.3925 139° Southeast 327 376 14,500  Level Oakland Center
Sun 04:16:51 PM 37.4358 -122.3022 132° Southeast 341 392 16,700 2,049 Climbing Oakland Center
Sun 04:17:53 PM 37.3661 -122.2097 133° Southeast 357 411 18,700 1,935 Climbing Oakland Center
Sun 04:18:55 PM 37.2928 -122.1125 133° Southeast 375 432 20,700 1,854 Climbing Oakland Center
Sun 04:19:56 PM 37.2169 -122.0103 133° Southeast 391 450 22,500 1,854 Climbing Oakland Center
Sun 04:20:58 PM 37.1233 -121.8858 133° Southeast 406 467 24,500 1,790 Climbing Oakland Center
Sun 04:22:00 PM 37.0414 -121.7800 134° Southeast 420 483 26,200 1,512 Climbing Oakland Center
Sun 04:23:01 PM 36.9583 -121.6742 134° Southeast 427 491 27,600 1,220 Climbing Oakland Center
Sun 04:24:03 PM 36.8761 -121.5631 133° Southeast 435 501 28,700 1,161 Climbing Oakland Center
Sun 04:25:05 PM 36.7803 -121.4378 134° Southeast 446 513 30,000 1,220 Climbing Oakland Center
Sun 04:26:06 PM 36.6944 -121.3272 134° Southeast 446 513 31,200 1,220 Climbing Oakland Center
Sun 04:27:08 PM 36.6108 -121.2139 133° Southeast 447 514 32,500 871 Climbing Oakland Center
Sun 04:28:10 PM 36.5225 -121.1039 135° Southeast 449 517 33,000 244 Climbing Oakland Center
Sun 04:29:11 PM 36.4325 -120.9867 134° Southeast 467 537 33,000  Level Oakland Center
Sun 04:30:13 PM 36.3419 -120.8672 133° Southeast 474 545 33,000  Level Oakland Center
Sun 04:31:15 PM 36.2511 -120.7489 134° Southeast 475 547 33,000  Level Oakland Center
Sun 04:32:16 PM 36.1414 -120.6086 134° Southeast 472 543 33,000  Level Oakland Center
Sun 04:33:18 PM 36.0497 -120.4903 134° Southeast 475 547 33,000  Level Oakland Center
Sun 04:34:20 PM 35.9589 -120.3731 134° Southeast 473 544 33,000  Level Oakland Center
Sun 04:35:21 PM 35.8683 -120.2578 134° Southeast 466 536 33,000  Level Oakland Center
Sun 04:36:23 PM 35.7786 -120.1442 134° Southeast 462 532 33,000  Level Oakland Center
Sun 04:37:24 PM 35.6872 -120.0289 134° Southeast 464 534 33,000  Level Oakland Center
Sun 04:38:32 PM 35.5667 -119.9075 141° Southeast 459 528 33,000  Level Los Angeles Center
Sun 04:39:34 PM 35.4600 -119.8169 145° Southeast 460 529 33,000  Level Los Angeles Center
Sun 04:40:36 PM 35.3550 -119.7258 145° Southeast 460 529 33,000  Level Los Angeles Center
Sun 04:41:50 PM 35.2278 -119.6175 145° Southeast 461 531 33,000  Level Los Angeles Center
Sun 04:42:53 PM 35.1233 -119.5278 145° Southeast 459 528 33,000 -864 Level Los Angeles Center
Sun 04:43:55 PM 35.0181 -119.4372 145° Southeast 462 532 31,200 -2,098 Descending Los Angeles Center
Sun 04:44:56 PM 34.9128 -119.3478 145° Southeast 461 531 28,700 -2,390 Descending Los Angeles Center
Sun 04:45:58 PM 34.8086 -119.2586 145° Southeast 459 528 26,300 -2,496 Descending Los Angeles Center
Sun 04:47:01 PM 34.6894 -119.1583 145° Southeast 437 503 23,500 -2,400 Descending Los Angeles Center
Sun 04:48:03 PM 34.5892 -119.0775 146° Southeast 432 497 21,300 -2,129 Descending Los Angeles Center
Sun 04:49:05 PM 34.4967 -118.9989 145° Southeast 408 470 19,100 -2,032 Descending Los Angeles Center
Sun 04:50:07 PM 34.4078 -118.9256 146° Southeast 387 445 17,100 -2,129 Descending Los Angeles Center
Sun 04:51:09 PM 34.2956 -118.8592 154° Southeast 375 432 14,700 -2,112 Descending Los Angeles Center
Sun 04:52:12 PM 34.1978 -118.8247 164° South 368 423 12,700 -1,584 Descending Los Angeles Center
Sun 04:53:14 PM 34.1111 -118.7922 163° South 331 381 11,400 -1,016 Descending Los Angeles Center
Sun 04:54:16 PM 34.0394 -118.7397 149° Southeast 295 339 10,600 -726 Descending Los Angeles Center
Sun 04:55:18 PM 34.0275 -118.6408 98° East 283 326 9,900 -581 Descending Los Angeles Center
Sun 04:56:20 PM 34.0189 -118.5492 96° East 276 318 9,400 -532 Descending Los Angeles Center
Sun 04:57:22 PM 34.0103 -118.4567 96° East 278 320 8,800 -1,210 Descending Los Angeles Center
Sun 04:58:24 PM 34.0222 -118.3636 81° East 270 311 6,900 -2,419 Descending Los Angeles Center
Sun 04:59:26 PM 34.0314 -118.2739 83° East 269 310 3,800 -1,887 Descending Los Angeles Center
Sun 05:00:28 PM 34.0203 -118.1958 100° East 259 298 3,000 -484 Descending Los Angeles Center
Sun 05:01:30 PM 33.9775 -118.2283 212° Southwest 216 249 2,800 -484 Descending Los Angeles Center
Sun 05:02:32 PM 33.9650 -118.2856 255° West 197 227 2,000 -823 Descending Los Angeles Center
Sun 05:03:34 PM 33.9583 -118.3447 262° West 166 191 1,100 -768 Descending Los Angeles Center
Sun 05:04:37 PM 33.9542 -118.3867 263° West 142 163 400 -432 Descending Los Angeles Center
Sun 05:05:39 PM 33.9506 -118.4233 263° West 135 155 200 -194 Descending Los Angeles Center

Login

Don't have an account? Register now (free) for customized features, flight alerts, and more!